Terminal Aerodrome Forecast
Issued by NWS Cleveland, OH

Home | Current Version | Previous Version | Graphics & Text | Print | Product List | Glossary Off
Versions: 1 2 3 4 5 6 7 8 9 10 11 12 13 14 15 16 17 18 19 20 21 22 23 24 25 26 27 28 29 30 31 32

000
FTUS41 KCLE 280300 AAB
TAFCLE
TAF AMD
KCLE 280301Z 2803/2906 33008KT P6SM SCT015 BKN250
      TEMPO 2803/2804 OVC015
     FM280400 33006KT P6SM SKC
     FM281500 30005KT P6SM BKN250
     FM282300 18005KT P6SM BKN250=

USA.gov is the U.S. government's official web portal to all federal, state and local government web resources and services.